sensor_id;sensor_type;location;lat;lon;timestamp;temperature;humidity
6865;DHT22;3471;49.678;8.388;2023-02-03T00:01:51;8.40;99.90
6865;DHT22;3471;49.678;8.388;2023-02-03T00:04:16;8.40;99.90
6865;DHT22;3471;49.678;8.388;2023-02-03T00:06:42;8.50;99.90
6865;DHT22;3471;49.678;8.388;2023-02-03T00:09:08;8.40;99.90
6865;DHT22;3471;49.678;8.388;2023-02-03T00:11:33;8.50;99.90
6865;DHT22;3471;49.678;8.388;2023-02-03T00:13:59;8.50;99.90
6865;DHT22;3471;49.678;8.388;2023-02-03T00:16:25;8.50;99.90
6865;DHT22;3471;49.678;8.388;2023-02-03T00:18:50;8.50;99.90
6865;DHT22;3471;49.678;8.388;2023-02-03T00:21:16;8.50;99.90
6865;DHT22;3471;49.678;8.388;2023-02-03T00:23:42;8.50;99.90
6865;DHT22;3471;49.678;8.388;2023-02-03T00:28:34;8.50;99.90
6865;DHT22;3471;49.678;8.388;2023-02-03T00:30:59;8.50;99.90
6865;DHT22;3471;49.678;8.388;2023-02-03T00:33:25;8.50;99.90
6865;DHT22;3471;49.678;8.388;2023-02-03T00:35:50;8.50;99.90
6865;DHT22;3471;49.678;8.388;2023-02-03T00:38:16;8.50;99.90
6865;DHT22;3471;49.678;8.388;2023-02-03T00:40:41;8.50;99.90
6865;DHT22;3471;49.678;8.388;2023-02-03T00:43:07;8.50;99.90
6865;DHT22;3471;49.678;8.388;2023-02-03T00:45:32;8.50;99.90
6865;DHT22;3471;49.678;8.388;2023-02-03T00:47:58;8.50;99.90
6865;DHT22;3471;49.678;8.388;2023-02-03T00:50:24;8.50;99.90
6865;DHT22;3471;49.678;8.388;2023-02-03T00:52:49;8.40;99.90
6865;DHT22;3471;49.678;8.388;2023-02-03T00:55:15;8.40;99.90
6865;DHT22;3471;49.678;8.388;2023-02-03T00:57:40;8.40;99.90
6865;DHT22;3471;49.678;8.388;2023-02-03T01:00:07;8.40;99.90
6865;DHT22;3471;49.678;8.388;2023-02-03T01:02:32;8.40;99.90
6865;DHT22;3471;49.678;8.388;2023-02-03T01:04:58;8.40;99.90
6865;DHT22;3471;49.678;8.388;2023-02-03T01:07:23;8.50;99.90
6865;DHT22;3471;49.678;8.388;2023-02-03T01:09:49;8.50;99.90
6865;DHT22;3471;49.678;8.388;2023-02-03T01:12:14;8.50;99.90
6865;DHT22;3471;49.678;8.388;2023-02-03T01:14:40;8.50;99.90
6865;DHT22;3471;49.678;8.388;2023-02-03T01:17:06;8.50;99.90
6865;DHT22;3471;49.678;8.388;2023-02-03T01:19:31;8.50;99.90
6865;DHT22;3471;49.678;8.388;2023-02-03T01:21:57;8.50;99.90
6865;DHT22;3471;49.678;8.388;2023-02-03T01:24:22;8.50;99.90
6865;DHT22;3471;49.678;8.388;2023-02-03T01:26:48;8.50;99.90
6865;DHT22;3471;49.678;8.388;2023-02-03T01:29:13;8.50;99.90
6865;DHT22;3471;49.678;8.388;2023-02-03T01:31:40;8.50;99.90
6865;DHT22;3471;49.678;8.388;2023-02-03T01:34:12;8.50;99.90
6865;DHT22;3471;49.678;8.388;2023-02-03T01:36:39;8.50;99.90
6865;DHT22;3471;49.678;8.388;2023-02-03T01:39:05;8.50;99.90
6865;DHT22;3471;49.678;8.388;2023-02-03T01:41:35;8.50;99.90
6865;DHT22;3471;49.678;8.388;2023-02-03T01:50:13;8.60;99.90
6865;DHT22;3471;49.678;8.388;2023-02-03T01:52:43;8.60;99.90
6865;DHT22;3471;49.678;8.388;2023-02-03T01:55:15;8.60;99.90
6865;DHT22;3471;49.678;8.388;2023-02-03T01:57:50;8.70;99.90
6865;DHT22;3471;49.678;8.388;2023-02-03T02:00:17;8.70;99.90
6865;DHT22;3471;49.678;8.388;2023-02-03T02:02:44;8.70;99.90
6865;DHT22;3471;49.678;8.388;2023-02-03T02:05:18;8.70;99.90
6865;DHT22;3471;49.678;8.388;2023-02-03T02:07:45;8.70;99.90
6865;DHT22;3471;49.678;8.388;2023-02-03T02:10:12;8.70;99.90
6865;DHT22;3471;49.678;8.388;2023-02-03T02:12:37;8.70;99.90
6865;DHT22;3471;49.678;8.388;2023-02-03T02:15:03;8.70;99.90
6865;DHT22;3471;49.678;8.388;2023-02-03T02:17:52;8.70;99.90
6865;DHT22;3471;49.678;8.388;2023-02-03T02:23:35;8.70;99.90
6865;DHT22;3471;49.678;8.388;2023-02-03T02:26:32;8.70;99.90
6865;DHT22;3471;49.678;8.388;2023-02-03T02:32:04;8.70;99.90
6865;DHT22;3471;49.678;8.388;2023-02-03T02:34:44;8.70;99.90
6865;DHT22;3471;49.678;8.388;2023-02-03T02:43:07;8.70;99.90
6865;DHT22;3471;49.678;8.388;2023-02-03T02:45:45;8.70;99.90
6865;DHT22;3471;49.678;8.388;2023-02-03T02:48:31;8.70;99.90
6865;DHT22;3471;49.678;8.388;2023-02-03T02:50:59;8.70;99.90
6865;DHT22;3471;49.678;8.388;2023-02-03T02:53:28;8.80;99.90
6865;DHT22;3471;49.678;8.388;2023-02-03T02:55:57;8.80;99.90
6865;DHT22;3471;49.678;8.388;2023-02-03T02:58:26;8.80;99.90
6865;DHT22;3471;49.678;8.388;2023-02-03T03:00:52;8.80;99.90
6865;DHT22;3471;49.678;8.388;2023-02-03T03:03:21;8.80;99.90
6865;DHT22;3471;49.678;8.388;2023-02-03T03:06:37;8.90;99.90
6865;DHT22;3471;49.678;8.388;2023-02-03T03:08:57;8.80;99.90
6865;DHT22;3471;49.678;8.388;2023-02-03T03:11:27;8.80;99.90
6865;DHT22;3471;49.678;8.388;2023-02-03T03:13:54;8.80;99.90
6865;DHT22;3471;49.678;8.388;2023-02-03T03:16:25;8.80;99.90
6865;DHT22;3471;49.678;8.388;2023-02-03T03:19:40;8.80;99.90
6865;DHT22;3471;49.678;8.388;2023-02-03T03:21:52;8.70;99.90
6865;DHT22;3471;49.678;8.388;2023-02-03T03:24:44;8.80;99.90
6865;DHT22;3471;49.678;8.388;2023-02-03T03:27:35;8.70;99.90
6865;DHT22;3471;49.678;8.388;2023-02-03T03:30:11;8.70;99.90
6865;DHT22;3471;49.678;8.388;2023-02-03T03:32:39;8.70;99.90
6865;DHT22;3471;49.678;8.388;2023-02-03T03:35:05;8.70;99.90
6865;DHT22;3471;49.678;8.388;2023-02-03T03:37:40;8.80;99.90
6865;DHT22;3471;49.678;8.388;2023-02-03T03:40:15;8.70;99.90
6865;DHT22;3471;49.678;8.388;2023-02-03T03:45:31;8.70;99.90
6865;DHT22;3471;49.678;8.388;2023-02-03T03:48:06;8.70;99.90
6865;DHT22;3471;49.678;8.388;2023-02-03T03:50:37;8.70;99.90
6865;DHT22;3471;49.678;8.388;2023-02-03T03:53:06;8.70;99.90
6865;DHT22;3471;49.678;8.388;2023-02-03T03:55:34;8.70;99.90
6865;DHT22;3471;49.678;8.388;2023-02-03T04:00:31;8.70;99.90
6865;DHT22;3471;49.678;8.388;2023-02-03T04:03:04;8.80;99.90
6865;DHT22;3471;49.678;8.388;2023-02-03T04:05:30;8.70;99.90
6865;DHT22;3471;49.678;8.388;2023-02-03T04:07:56;8.70;99.90
6865;DHT22;3471;49.678;8.388;2023-02-03T04:10:30;8.70;99.90
6865;DHT22;3471;49.678;8.388;2023-02-03T04:12:56;8.60;99.90
6865;DHT22;3471;49.678;8.388;2023-02-03T04:15:22;8.70;99.90
6865;DHT22;3471;49.678;8.388;2023-02-03T04:17:47;8.70;99.90
6865;DHT22;3471;49.678;8.388;2023-02-03T04:20:14;8.60;99.90
6865;DHT22;3471;49.678;8.388;2023-02-03T04:22:40;8.70;99.90
6865;DHT22;3471;49.678;8.388;2023-02-03T04:25:05;8.70;99.90
6865;DHT22;3471;49.678;8.388;2023-02-03T04:27:31;8.70;99.90
6865;DHT22;3471;49.678;8.388;2023-02-03T04:29:57;8.70;99.90
6865;DHT22;3471;49.678;8.388;2023-02-03T04:32:22;8.70;99.90
6865;DHT22;3471;49.678;8.388;2023-02-03T04:34:48;8.70;99.90
6865;DHT22;3471;49.678;8.388;2023-02-03T04:37:13;8.80;99.90
6865;DHT22;3471;49.678;8.388;2023-02-03T04:39:39;8.80;99.90
6865;DHT22;3471;49.678;8.388;2023-02-03T04:42:05;8.80;99.90
6865;DHT22;3471;49.678;8.388;2023-02-03T04:44:30;8.80;99.90
6865;DHT22;3471;49.678;8.388;2023-02-03T04:46:56;8.80;99.90
6865;DHT22;3471;49.678;8.388;2023-02-03T04:49:21;8.90;99.90
6865;DHT22;3471;49.678;8.388;2023-02-03T04:51:50;8.80;99.90
6865;DHT22;3471;49.678;8.388;2023-02-03T04:54:16;8.80;99.90
6865;DHT22;3471;49.678;8.388;2023-02-03T04:56:41;8.80;99.90
6865;DHT22;3471;49.678;8.388;2023-02-03T04:59:07;8.80;99.90
6865;DHT22;3471;49.678;8.388;2023-02-03T05:01:33;8.80;99.90
6865;DHT22;3471;49.678;8.388;2023-02-03T05:03:59;8.80;99.90
6865;DHT22;3471;49.678;8.388;2023-02-03T05:06:26;8.80;99.90
6865;DHT22;3471;49.678;8.388;2023-02-03T05:08:53;8.70;99.90
6865;DHT22;3471;49.678;8.388;2023-02-03T05:11:19;8.70;99.90
6865;DHT22;3471;49.678;8.388;2023-02-03T05:13:45;8.70;99.90
6865;DHT22;3471;49.678;8.388;2023-02-03T05:16:10;8.70;99.90
6865;DHT22;3471;49.678;8.388;2023-02-03T05:18:36;8.70;99.90
6865;DHT22;3471;49.678;8.388;2023-02-03T05:21:01;8.80;99.90
6865;DHT22;3471;49.678;8.388;2023-02-03T05:23:27;8.70;99.90
6865;DHT22;3471;49.678;8.388;2023-02-03T05:25:52;8.70;99.90
6865;DHT22;3471;49.678;8.388;2023-02-03T05:28:18;8.70;99.90
6865;DHT22;3471;49.678;8.388;2023-02-03T05:30:43;8.70;99.90
6865;DHT22;3471;49.678;8.388;2023-02-03T05:33:09;8.70;99.90
6865;DHT22;3471;49.678;8.388;2023-02-03T05:35:35;8.70;99.90
6865;DHT22;3471;49.678;8.388;2023-02-03T05:38:00;8.70;99.90
6865;DHT22;3471;49.678;8.388;2023-02-03T05:40:26;8.60;99.90
6865;DHT22;3471;49.678;8.388;2023-02-03T05:43:10;8.70;99.90
6865;DHT22;3471;49.678;8.388;2023-02-03T05:45:36;8.60;99.90
6865;DHT22;3471;49.678;8.388;2023-02-03T05:48:02;8.60;99.90
6865;DHT22;3471;49.678;8.388;2023-02-03T05:50:29;8.60;99.90
6865;DHT22;3471;49.678;8.388;2023-02-03T05:52:58;8.60;99.90
6865;DHT22;3471;49.678;8.388;2023-02-03T05:55:24;8.60;99.90
6865;DHT22;3471;49.678;8.388;2023-02-03T05:57:50;8.60;99.90
6865;DHT22;3471;49.678;8.388;2023-02-03T06:00:16;8.60;99.90
6865;DHT22;3471;49.678;8.388;2023-02-03T06:02:41;8.60;99.90
6865;DHT22;3471;49.678;8.388;2023-02-03T06:05:07;8.50;99.90
6865;DHT22;3471;49.678;8.388;2023-02-03T06:07:33;8.50;99.90
6865;DHT22;3471;49.678;8.388;2023-02-03T06:09:59;8.50;99.90
6865;DHT22;3471;49.678;8.388;2023-02-03T06:12:24;8.50;99.90
6865;DHT22;3471;49.678;8.388;2023-02-03T06:14:50;8.50;99.90
6865;DHT22;3471;49.678;8.388;2023-02-03T06:17:15;8.50;99.90
6865;DHT22;3471;49.678;8.388;2023-02-03T06:19:41;8.50;99.90
6865;DHT22;3471;49.678;8.388;2023-02-03T06:22:06;8.50;99.90
6865;DHT22;3471;49.678;8.388;2023-02-03T06:24:32;8.60;99.90
6865;DHT22;3471;49.678;8.388;2023-02-03T06:26:57;8.60;99.90
6865;DHT22;3471;49.678;8.388;2023-02-03T06:29:23;8.60;99.90
6865;DHT22;3471;49.678;8.388;2023-02-03T06:31:49;8.60;99.90
6865;DHT22;3471;49.678;8.388;2023-02-03T06:34:14;8.60;99.90
6865;DHT22;3471;49.678;8.388;2023-02-03T06:36:40;8.60;99.90
6865;DHT22;3471;49.678;8.388;2023-02-03T06:39:05;8.60;99.90
6865;DHT22;3471;49.678;8.388;2023-02-03T06:41:31;8.60;99.90
6865;DHT22;3471;49.678;8.388;2023-02-03T06:43:57;8.70;99.90
6865;DHT22;3471;49.678;8.388;2023-02-03T06:46:22;8.70;99.90
6865;DHT22;3471;49.678;8.388;2023-02-03T06:48:52;8.70;99.90
6865;DHT22;3471;49.678;8.388;2023-02-03T06:51:18;8.70;99.90
6865;DHT22;3471;49.678;8.388;2023-02-03T06:53:43;8.70;99.90
6865;DHT22;3471;49.678;8.388;2023-02-03T06:56:09;8.70;99.90
6865;DHT22;3471;49.678;8.388;2023-02-03T06:58:34;8.80;99.90
6865;DHT22;3471;49.678;8.388;2023-02-03T07:01:00;8.80;99.90
6865;DHT22;3471;49.678;8.388;2023-02-03T07:03:26;8.80;99.90
6865;DHT22;3471;49.678;8.388;2023-02-03T07:05:51;8.80;99.90
6865;DHT22;3471;49.678;8.388;2023-02-03T07:08:17;8.70;99.90
6865;DHT22;3471;49.678;8.388;2023-02-03T07:10:42;8.70;99.90
6865;DHT22;3471;49.678;8.388;2023-02-03T07:13:08;8.70;99.90
6865;DHT22;3471;49.678;8.388;2023-02-03T07:15:34;8.70;99.90
6865;DHT22;3471;49.678;8.388;2023-02-03T07:17:59;8.70;99.90
6865;DHT22;3471;49.678;8.388;2023-02-03T07:20:25;8.60;99.90
6865;DHT22;3471;49.678;8.388;2023-02-03T07:22:54;8.60;99.90
6865;DHT22;3471;49.678;8.388;2023-02-03T07:25:20;8.70;99.90
6865;DHT22;3471;49.678;8.388;2023-02-03T07:27:46;8.70;99.90
6865;DHT22;3471;49.678;8.388;2023-02-03T07:30:13;8.70;99.90
6865;DHT22;3471;49.678;8.388;2023-02-03T07:32:39;8.70;99.90
6865;DHT22;3471;49.678;8.388;2023-02-03T07:35:05;8.70;99.90
6865;DHT22;3471;49.678;8.388;2023-02-03T07:37:30;8.70;99.90
6865;DHT22;3471;49.678;8.388;2023-02-03T07:39:56;8.70;99.90
6865;DHT22;3471;49.678;8.388;2023-02-03T07:42:22;8.70;99.90
6865;DHT22;3471;49.678;8.388;2023-02-03T07:44:47;8.80;99.90
6865;DHT22;3471;49.678;8.388;2023-02-03T07:47:13;8.80;99.90
6865;DHT22;3471;49.678;8.388;2023-02-03T07:49:38;8.80;99.90
6865;DHT22;3471;49.678;8.388;2023-02-03T07:52:04;8.80;99.90
6865;DHT22;3471;49.678;8.388;2023-02-03T07:54:29;8.80;99.90
6865;DHT22;3471;49.678;8.388;2023-02-03T07:56:55;8.80;99.90
6865;DHT22;3471;49.678;8.388;2023-02-03T07:59:21;8.80;99.90
6865;DHT22;3471;49.678;8.388;2023-02-03T08:01:46;8.80;99.90
6865;DHT22;3471;49.678;8.388;2023-02-03T08:04:12;8.80;99.90
6865;DHT22;3471;49.678;8.388;2023-02-03T08:06:41;8.80;99.90
6865;DHT22;3471;49.678;8.388;2023-02-03T08:09:07;8.80;99.90
6865;DHT22;3471;49.678;8.388;2023-02-03T08:11:32;8.80;99.90
6865;DHT22;3471;49.678;8.388;2023-02-03T08:13:58;8.90;99.90
6865;DHT22;3471;49.678;8.388;2023-02-03T08:16:23;8.90;99.90
6865;DHT22;3471;49.678;8.388;2023-02-03T08:18:49;8.90;99.90
6865;DHT22;3471;49.678;8.388;2023-02-03T08:21:15;8.90;99.90
6865;DHT22;3471;49.678;8.388;2023-02-03T08:23:40;8.90;99.90
6865;DHT22;3471;49.678;8.388;2023-02-03T08:26:06;8.90;99.90
6865;DHT22;3471;49.678;8.388;2023-02-03T08:28:31;8.90;99.90
6865;DHT22;3471;49.678;8.388;2023-02-03T08:30:57;8.90;99.90
6865;DHT22;3471;49.678;8.388;2023-02-03T08:33:22;9.00;99.90
6865;DHT22;3471;49.678;8.388;2023-02-03T08:35:49;9.00;99.90
6865;DHT22;3471;49.678;8.388;2023-02-03T08:38:15;9.00;99.90
6865;DHT22;3471;49.678;8.388;2023-02-03T08:40:41;9.00;99.90
6865;DHT22;3471;49.678;8.388;2023-02-03T08:43:07;9.00;99.90
6865;DHT22;3471;49.678;8.388;2023-02-03T08:45:33;9.00;99.90
6865;DHT22;3471;49.678;8.388;2023-02-03T08:47:59;9.00;99.90
6865;DHT22;3471;49.678;8.388;2023-02-03T08:50:24;9.10;99.90
6865;DHT22;3471;49.678;8.388;2023-02-03T08:52:50;9.10;99.90
6865;DHT22;3471;49.678;8.388;2023-02-03T08:55:15;9.20;99.90
6865;DHT22;3471;49.678;8.388;2023-02-03T08:57:41;9.20;99.90
6865;DHT22;3471;49.678;8.388;2023-02-03T09:00:08;9.20;99.90
6865;DHT22;3471;49.678;8.388;2023-02-03T09:02:34;9.30;99.90
6865;DHT22;3471;49.678;8.388;2023-02-03T09:05:00;9.20;99.90
6865;DHT22;3471;49.678;8.388;2023-02-03T09:07:26;9.30;99.90
6865;DHT22;3471;49.678;8.388;2023-02-03T09:09:52;9.30;99.90
6865;DHT22;3471;49.678;8.388;2023-02-03T09:12:17;9.30;99.90
6865;DHT22;3471;49.678;8.388;2023-02-03T09:14:43;9.30;99.90
6865;DHT22;3471;49.678;8.388;2023-02-03T09:17:09;9.20;99.90
6865;DHT22;3471;49.678;8.388;2023-02-03T09:19:35;9.30;99.90
6865;DHT22;3471;49.678;8.388;2023-02-03T09:22:00;9.30;99.90
6865;DHT22;3471;49.678;8.388;2023-02-03T09:24:26;9.40;99.90
6865;DHT22;3471;49.678;8.388;2023-02-03T09:26:52;9.40;99.90
6865;DHT22;3471;49.678;8.388;2023-02-03T09:29:18;9.40;99.90
6865;DHT22;3471;49.678;8.388;2023-02-03T09:31:44;9.40;99.90
6865;DHT22;3471;49.678;8.388;2023-02-03T09:34:11;9.40;99.90
6865;DHT22;3471;49.678;8.388;2023-02-03T09:36:36;9.50;99.90
6865;DHT22;3471;49.678;8.388;2023-02-03T09:39:02;9.50;99.90
6865;DHT22;3471;49.678;8.388;2023-02-03T09:44:08;9.50;99.90
6865;DHT22;3471;49.678;8.388;2023-02-03T09:46:41;9.50;99.90
6865;DHT22;3471;49.678;8.388;2023-02-03T09:49:13;9.50;99.90
6865;DHT22;3471;49.678;8.388;2023-02-03T09:51:54;9.50;99.90
6865;DHT22;3471;49.678;8.388;2023-02-03T09:54:42;9.50;99.90
6865;DHT22;3471;49.678;8.388;2023-02-03T09:57:22;9.50;99.90
6865;DHT22;3471;49.678;8.388;2023-02-03T09:59:49;9.60;99.90
6865;DHT22;3471;49.678;8.388;2023-02-03T10:05:37;9.60;99.90
6865;DHT22;3471;49.678;8.388;2023-02-03T10:17:33;9.70;99.90
6865;DHT22;3471;49.678;8.388;2023-02-03T10:19:47;9.70;99.90
6865;DHT22;3471;49.678;8.388;2023-02-03T10:22:17;9.70;99.90
6865;DHT22;3471;49.678;8.388;2023-02-03T10:24:53;9.80;99.90
6865;DHT22;3471;49.678;8.388;2023-02-03T10:27:21;9.80;99.90
6865;DHT22;3471;49.678;8.388;2023-02-03T10:30:03;9.80;99.90
6865;DHT22;3471;49.678;8.388;2023-02-03T10:32:30;9.70;99.90
6865;DHT22;3471;49.678;8.388;2023-02-03T10:34:56;9.80;99.90
6865;DHT22;3471;49.678;8.388;2023-02-03T10:37:41;9.80;99.90
6865;DHT22;3471;49.678;8.388;2023-02-03T10:40:14;9.70;99.90
6865;DHT22;3471;49.678;8.388;2023-02-03T10:42:41;9.80;99.90
6865;DHT22;3471;49.678;8.388;2023-02-03T10:45:34;9.70;99.90
6865;DHT22;3471;49.678;8.388;2023-02-03T10:48:01;9.70;99.90
6865;DHT22;3471;49.678;8.388;2023-02-03T10:50:27;9.70;99.90
6865;DHT22;3471;49.678;8.388;2023-02-03T10:55:49;9.80;99.90
6865;DHT22;3471;49.678;8.388;2023-02-03T10:58:24;9.80;99.90
6865;DHT22;3471;49.678;8.388;2023-02-03T11:03:30;9.80;99.90
6865;DHT22;3471;49.678;8.388;2023-02-03T11:08:36;9.90;99.90
6865;DHT22;3471;49.678;8.388;2023-02-03T11:11:07;9.80;99.90
6865;DHT22;3471;49.678;8.388;2023-02-03T11:13:33;9.80;99.90
6865;DHT22;3471;49.678;8.388;2023-02-03T11:16:13;9.80;99.90
6865;DHT22;3471;49.678;8.388;2023-02-03T11:21:24;9.70;99.90
6865;DHT22;3471;49.678;8.388;2023-02-03T11:26:20;9.60;99.90
6865;DHT22;3471;49.678;8.388;2023-02-03T11:28:49;9.60;99.90
6865;DHT22;3471;49.678;8.388;2023-02-03T11:31:36;9.60;99.90
6865;DHT22;3471;49.678;8.388;2023-02-03T11:34:13;9.60;99.90
6865;DHT22;3471;49.678;8.388;2023-02-03T11:36:39;9.70;99.90
6865;DHT22;3471;49.678;8.388;2023-02-03T11:39:23;9.70;99.90
6865;DHT22;3471;49.678;8.388;2023-02-03T11:41:49;9.70;99.90
6865;DHT22;3471;49.678;8.388;2023-02-03T11:44:21;9.80;99.90
6865;DHT22;3471;49.678;8.388;2023-02-03T11:46:49;9.70;99.90
6865;DHT22;3471;49.678;8.388;2023-02-03T11:52:49;9.80;99.90
6865;DHT22;3471;49.678;8.388;2023-02-03T11:55:54;9.80;99.90
6865;DHT22;3471;49.678;8.388;2023-02-03T12:01:45;9.80;99.90
6865;DHT22;3471;49.678;8.388;2023-02-03T12:04:51;9.70;99.90
6865;DHT22;3471;49.678;8.388;2023-02-03T12:15:50;9.90;99.90
6865;DHT22;3471;49.678;8.388;2023-02-03T12:26:48;9.80;99.90
6865;DHT22;3471;49.678;8.388;2023-02-03T12:29:23;9.90;99.90
6865;DHT22;3471;49.678;8.388;2023-02-03T12:34:38;9.90;99.90
6865;DHT22;3471;49.678;8.388;2023-02-03T12:39:52;9.80;99.90
6865;DHT22;3471;49.678;8.388;2023-02-03T12:42:25;9.80;99.90
6865;DHT22;3471;49.678;8.388;2023-02-03T12:44:57;9.80;99.90
6865;DHT22;3471;49.678;8.388;2023-02-03T12:47:35;9.90;99.90
6865;DHT22;3471;49.678;8.388;2023-02-03T12:50:12;9.90;99.90
6865;DHT22;3471;49.678;8.388;2023-02-03T12:53:02;9.90;99.90
6865;DHT22;3471;49.678;8.388;2023-02-03T12:55:40;9.90;99.90
6865;DHT22;3471;49.678;8.388;2023-02-03T12:58:23;10.00;99.90
6865;DHT22;3471;49.678;8.388;2023-02-03T13:01:41;9.90;99.90
6865;DHT22;3471;49.678;8.388;2023-02-03T13:04:07;10.00;99.90
6865;DHT22;3471;49.678;8.388;2023-02-03T13:06:56;9.90;99.90
6865;DHT22;3471;49.678;8.388;2023-02-03T13:14:51;10.00;99.90
6865;DHT22;3471;49.678;8.388;2023-02-03T13:17:29;10.00;99.90
6865;DHT22;3471;49.678;8.388;2023-02-03T13:20:04;10.00;99.90
6865;DHT22;3471;49.678;8.388;2023-02-03T13:22:34;10.00;99.90
6865;DHT22;3471;49.678;8.388;2023-02-03T13:25:24;10.00;99.90
6865;DHT22;3471;49.678;8.388;2023-02-03T13:27:56;10.00;99.90
6865;DHT22;3471;49.678;8.388;2023-02-03T13:33:15;9.90;99.90
6865;DHT22;3471;49.678;8.388;2023-02-03T13:41:19;9.80;99.90
6865;DHT22;3471;49.678;8.388;2023-02-03T13:43:49;9.90;99.90
6865;DHT22;3471;49.678;8.388;2023-02-03T13:46:28;9.80;99.90
6865;DHT22;3471;49.678;8.388;2023-02-03T13:48:57;9.80;99.90
6865;DHT22;3471;49.678;8.388;2023-02-03T13:51:26;9.80;99.90
6865;DHT22;3471;49.678;8.388;2023-02-03T13:54:03;9.80;99.90
6865;DHT22;3471;49.678;8.388;2023-02-03T13:56:30;9.80;99.90
6865;DHT22;3471;49.678;8.388;2023-02-03T14:01:36;9.80;99.90
6865;DHT22;3471;49.678;8.388;2023-02-03T14:04:08;9.90;99.90
6865;DHT22;3471;49.678;8.388;2023-02-03T14:20:00;9.80;99.90
6865;DHT22;3471;49.678;8.388;2023-02-03T14:22:27;9.80;99.90
6865;DHT22;3471;49.678;8.388;2023-02-03T14:24:55;9.80;99.90
6865;DHT22;3471;49.678;8.388;2023-02-03T14:27:24;9.80;99.90
6865;DHT22;3471;49.678;8.388;2023-02-03T14:30:14;9.80;99.90
6865;DHT22;3471;49.678;8.388;2023-02-03T14:32:49;9.70;99.90
6865;DHT22;3471;49.678;8.388;2023-02-03T14:35:18;9.80;99.90
6865;DHT22;3471;49.678;8.388;2023-02-03T14:37:59;9.80;99.90
6865;DHT22;3471;49.678;8.388;2023-02-03T14:43:27;9.80;99.90
6865;DHT22;3471;49.678;8.388;2023-02-03T14:51:30;9.90;99.90
6865;DHT22;3471;49.678;8.388;2023-02-03T15:02:23;9.90;99.90
6865;DHT22;3471;49.678;8.388;2023-02-03T15:04:52;9.80;99.90
6865;DHT22;3471;49.678;8.388;2023-02-03T15:07:38;9.90;99.90
6865;DHT22;3471;49.678;8.388;2023-02-03T15:10:17;9.90;99.90
6865;DHT22;3471;49.678;8.388;2023-02-03T15:12:53;9.90;99.90
6865;DHT22;3471;49.678;8.388;2023-02-03T15:15:22;9.90;99.90
6865;DHT22;3471;49.678;8.388;2023-02-03T15:17:52;9.90;99.90
6865;DHT22;3471;49.678;8.388;2023-02-03T15:22:56;9.80;99.90
6865;DHT22;3471;49.678;8.388;2023-02-03T15:25:22;9.90;99.90
6865;DHT22;3471;49.678;8.388;2023-02-03T15:27:49;9.80;99.90
6865;DHT22;3471;49.678;8.388;2023-02-03T15:30:26;9.80;99.90
6865;DHT22;3471;49.678;8.388;2023-02-03T15:33:13;9.90;99.90
6865;DHT22;3471;49.678;8.388;2023-02-03T15:35:40;9.80;99.90
6865;DHT22;3471;49.678;8.388;2023-02-03T15:38:16;9.80;99.90
6865;DHT22;3471;49.678;8.388;2023-02-03T15:40:47;9.70;99.90
6865;DHT22;3471;49.678;8.388;2023-02-03T15:43:21;9.80;99.90
6865;DHT22;3471;49.678;8.388;2023-02-03T15:51:32;9.70;99.90
6865;DHT22;3471;49.678;8.388;2023-02-03T15:54:07;9.80;99.90
6865;DHT22;3471;49.678;8.388;2023-02-03T15:56:43;9.80;99.90
6865;DHT22;3471;49.678;8.388;2023-02-03T16:01:46;9.80;99.90
6865;DHT22;3471;49.678;8.388;2023-02-03T16:04:12;9.80;99.90
6865;DHT22;3471;49.678;8.388;2023-02-03T16:06:39;9.80;99.90
6865;DHT22;3471;49.678;8.388;2023-02-03T16:09:26;9.80;99.90
6865;DHT22;3471;49.678;8.388;2023-02-03T16:12:14;9.80;99.90
6865;DHT22;3471;49.678;8.388;2023-02-03T16:14:40;9.80;99.90
6865;DHT22;3471;49.678;8.388;2023-02-03T16:19:51;9.80;99.90
6865;DHT22;3471;49.678;8.388;2023-02-03T16:22:34;9.80;99.90
6865;DHT22;3471;49.678;8.388;2023-02-03T16:25:33;9.80;99.90
6865;DHT22;3471;49.678;8.388;2023-02-03T16:33:36;9.70;99.90
6865;DHT22;3471;49.678;8.388;2023-02-03T16:36:20;9.80;99.90
6865;DHT22;3471;49.678;8.388;2023-02-03T16:39:10;9.80;99.90
6865;DHT22;3471;49.678;8.388;2023-02-03T16:41:57;9.80;99.90
6865;DHT22;3471;49.678;8.388;2023-02-03T16:44:42;9.70;99.90
6865;DHT22;3471;49.678;8.388;2023-02-03T16:47:29;9.70;99.90
6865;DHT22;3471;49.678;8.388;2023-02-03T16:50:21;9.80;99.90
6865;DHT22;3471;49.678;8.388;2023-02-03T16:53:12;9.70;99.90
6865;DHT22;3471;49.678;8.388;2023-02-03T16:55:38;9.70;99.90
6865;DHT22;3471;49.678;8.388;2023-02-03T16:58:04;9.80;99.90
6865;DHT22;3471;49.678;8.388;2023-02-03T17:00:29;9.70;99.90
6865;DHT22;3471;49.678;8.388;2023-02-03T17:02:55;9.70;99.90
6865;DHT22;3471;49.678;8.388;2023-02-03T17:05:20;9.70;99.90
6865;DHT22;3471;49.678;8.388;2023-02-03T17:07:46;9.70;99.90
6865;DHT22;3471;49.678;8.388;2023-02-03T17:10:12;9.70;99.90
6865;DHT22;3471;49.678;8.388;2023-02-03T17:12:38;9.70;99.90
6865;DHT22;3471;49.678;8.388;2023-02-03T17:15:04;9.70;99.90
6865;DHT22;3471;49.678;8.388;2023-02-03T17:17:30;9.60;99.90
6865;DHT22;3471;49.678;8.388;2023-02-03T17:19:56;9.60;99.90
6865;DHT22;3471;49.678;8.388;2023-02-03T17:22:24;9.60;99.90
6865;DHT22;3471;49.678;8.388;2023-02-03T17:24:49;9.50;99.90
6865;DHT22;3471;49.678;8.388;2023-02-03T17:27:15;9.50;99.90
6865;DHT22;3471;49.678;8.388;2023-02-03T17:29:41;9.50;99.90
6865;DHT22;3471;49.678;8.388;2023-02-03T17:32:06;9.50;99.90
6865;DHT22;3471;49.678;8.388;2023-02-03T17:34:33;9.40;99.90
6865;DHT22;3471;49.678;8.388;2023-02-03T17:36:59;9.50;99.90
6865;DHT22;3471;49.678;8.388;2023-02-03T17:39:24;9.40;99.90
6865;DHT22;3471;49.678;8.388;2023-02-03T17:41:51;9.40;99.90
6865;DHT22;3471;49.678;8.388;2023-02-03T17:44:17;9.40;99.90
6865;DHT22;3471;49.678;8.388;2023-02-03T17:46:43;9.40;99.90
6865;DHT22;3471;49.678;8.388;2023-02-03T17:49:08;9.40;99.90
6865;DHT22;3471;49.678;8.388;2023-02-03T17:51:34;9.40;99.90
6865;DHT22;3471;49.678;8.388;2023-02-03T17:54:00;9.40;99.90
6865;DHT22;3471;49.678;8.388;2023-02-03T17:56:31;9.40;99.90
6865;DHT22;3471;49.678;8.388;2023-02-03T17:58:59;9.40;99.90
6865;DHT22;3471;49.678;8.388;2023-02-03T18:01:25;9.40;99.90
6865;DHT22;3471;49.678;8.388;2023-02-03T18:03:56;9.40;99.90
6865;DHT22;3471;49.678;8.388;2023-02-03T18:06:24;9.40;99.90
6865;DHT22;3471;49.678;8.388;2023-02-03T18:08:50;9.50;99.90
6865;DHT22;3471;49.678;8.388;2023-02-03T18:11:17;9.50;99.90
6865;DHT22;3471;49.678;8.388;2023-02-03T18:13:45;9.50;99.90
6865;DHT22;3471;49.678;8.388;2023-02-03T18:16:16;9.60;99.90
6865;DHT22;3471;49.678;8.388;2023-02-03T18:18:44;9.60;99.90
6865;DHT22;3471;49.678;8.388;2023-02-03T18:21:12;9.60;99.90
6865;DHT22;3471;49.678;8.388;2023-02-03T18:23:38;9.60;99.90
6865;DHT22;3471;49.678;8.388;2023-02-03T18:26:06;9.60;99.90
6865;DHT22;3471;49.678;8.388;2023-02-03T18:28:32;9.70;99.90
6865;DHT22;3471;49.678;8.388;2023-02-03T18:30:59;9.70;99.90
6865;DHT22;3471;49.678;8.388;2023-02-03T18:33:25;9.70;99.90
6865;DHT22;3471;49.678;8.388;2023-02-03T18:35:51;9.70;99.90
6865;DHT22;3471;49.678;8.388;2023-02-03T18:38:16;9.70;99.90
6865;DHT22;3471;49.678;8.388;2023-02-03T18:40:42;9.70;99.90
6865;DHT22;3471;49.678;8.388;2023-02-03T18:43:07;9.70;99.90
6865;DHT22;3471;49.678;8.388;2023-02-03T18:45:36;9.70;99.90
6865;DHT22;3471;49.678;8.388;2023-02-03T18:48:02;9.70;99.90
6865;DHT22;3471;49.678;8.388;2023-02-03T18:50:27;9.70;99.90
6865;DHT22;3471;49.678;8.388;2023-02-03T18:52:53;9.70;99.90
6865;DHT22;3471;49.678;8.388;2023-02-03T18:55:19;9.70;99.90
6865;DHT22;3471;49.678;8.388;2023-02-03T18:57:44;9.70;99.90
6865;DHT22;3471;49.678;8.388;2023-02-03T19:00:12;9.80;99.90
6865;DHT22;3471;49.678;8.388;2023-02-03T19:02:38;9.80;99.90